x

South Brooks (46132) Wave Buoy

7:00am - Sat 1st Aug 2015 All times are PDT. -7 hours from GMT.

  • Sig Wave height 4.6ft
  • Peak Period 15s
  • Wind
    18mph, 22mph gusts
  • Sea Temp 53°f
  • 空気 Temp 58°f
  • Sea Pressure 1019.4mb
  • South Brooks
  • South Brooks

More Historic Weather Station data

Upgrade to MSW Pro to gain access to the past 30 days of data for over 8000 Wavebouys and Weather Stations around the globe.

Join Pro

Comparision Forecast

View Surf forecast
   
Sat 08/01 7:00am 4.5ft 15s 18 22 mph 1019.4mb 53f 58f
6:00am  -   -  18
mph
1019mb - 58f
5:00am 4.5ft 15s 20 22 mph 1018.7mb 53f 58f
4:00am 4.5ft 14s 20 22 mph 1018.6mb 54f 58f
3:00am 4.5ft 15s 20 25 mph 1018.6mb 54f 59f
2:00am 4.5ft 15s 22 27 mph 1018.7mb 54f 59f
1:00am  -   -  22
mph
1018.9mb - 59f
12:00am 5.5ft 15s 22 25 mph 1019.1mb 54f 59f
Fri 07/31 11:00pm 5ft 5s 22 27 mph 1019.1mb 54f 60f
10:00pm 5.5ft 5s 22 27 mph 1019mb 54f 60f
9:00pm 5.5ft 15s 22 27 mph 1018.9mb 54f 60f
8:00pm 5.5ft 5s 20 25 mph 1019mb 54f 60f
7:00pm 5ft 5s 22 27 mph 1019.2mb 55f 60f
6:00pm 5ft 15s 22 27 mph 1019.6mb 55f 60f
5:00pm 5ft 16s 22 27 mph 1019.9mb 55f 60f
3:00pm 5ft 15s 20 25 mph 1020.7mb 55f 60f
2:00pm 5ft 15s 20 25 mph 1020.8mb 55f 60f
1:00pm 5ft 15s 22 27 mph 1020.5mb 55f 60f
12:00pm 5ft 15s 22 25 mph 1020.7mb 55f 60f
11:00am 5ft 14s 22 27 mph 1020.6mb 55f 60f
10:00am 5ft 15s 22 27 mph 1020.5mb 55f 60f
9:00am 5ft 15s 22 27 mph 1020.6mb 55f 59f
8:00am 5.5ft 5s 22 29 mph 1020.4mb 56f 59f
7:00am 5.5ft 6s 22 27 mph 1020.3mb 56f 59f
6:00am 6ft 5s 22 27 mph 1019.7mb 56f 59f
5:00am 6ft 5s 25 29 mph 1019.6mb 56f 59f
4:00am 6ft 5s 25 29 mph 1019.5mb 56f 59f
3:00am 6ft 5s 25 31 mph 1019.1mb 56f 59f
2:00am 6ft 5s 25 31 mph 1019.1mb 56f 60f
1:00am 6ft 6s 25 29 mph 1019mb 56f 60f
12:00am 7ft 6s 25 29 mph 1019.1mb 56f 60f
Thu 07/30 11:00pm 6.5ft 5s 27 31 mph 1019.4mb 57f 60f
10:00pm 6ft 6s 25 29 mph 1019.7mb 58f 60f
9:00pm 6ft 6s 25 31 mph 1019.4mb 58f 60f
8:00pm 6ft 6s 22 27 mph 1019.4mb 59f 61f
7:00pm 6ft 16s 22 27 mph 1019.9mb 59f 61f
6:00pm 6.5ft 16s 22 29 mph 1020.3mb 59f 61f
5:00pm 6ft 15s 22 27 mph 1020.6mb 59f 61f
4:00pm 6ft 5s 22 27 mph 1020.9mb 59f 61f
3:00pm 5.5ft 16s 22 29 mph 1021.2mb 58f 61f
2:00pm 6ft 16s 22 29 mph 1021.3mb 58f 60f
1:00pm 6ft 15s 22 25 mph 1021.3mb 58f 60f
12:00pm 6ft 16s 22 27 mph 1021.3mb 58f 60f
11:00am 5.5ft 15s 20 22 mph 1021.3mb 58f 60f
10:00am 5.5ft 15s 20 22 mph 1021.2mb 58f 60f
9:00am 6ft 16s 18 22 mph 1021.3mb 58f 60f
8:00am 5.5ft 15s 20 25 mph 1021.2mb 58f 60f
7:00am 5ft 16s 20 25 mph 1021mb 58f 60f
6:00am 5.5ft 8s 18 22 mph 1020.8mb 58f 60f
5:00am 5.5ft 16s 18 22 mph 1020.8mb 58f 60f
4:00am 6ft 16s 20 25 mph 1020.8mb 59f 60f
3:00am 6ft 16s 22 27 mph 1021mb 59f 60f
2:00am 6ft 15s 25 29 mph 1021.3mb 59f 61f
1:00am 6ft 16s 25 29 mph 1021.2mb 59f 61f
12:00am 6ft 16s 25 29 mph 1021.2mb 60f 61f
Wed 07/29 11:00pm 6ft 16s 25 31 mph 1021.4mb 60f 62f
10:00pm 6ft 16s 25 29 mph 1021.4mb 60f 62f
9:00pm 7ft 17s 22 27 mph 1021.5mb 61f 62f
8:00pm 6ft 9s 25 29 mph 1021.8mb 62f 63f
7:00pm 5.5ft 16s 22 31 mph 1022mb 62f 63f
5:00pm 5.5ft 17s 20 25 mph 1022.9mb 62f 63f
4:00pm 5.5ft 17s 20 25 mph 1023.4mb 62f 62f
3:00pm 5.5ft 16s 20 25 mph 1023.7mb 62f 62f
2:00pm 5.5ft 17s 18 22 mph 1023.7mb 62f 62f
1:00pm 5.5ft 17s 18 22 mph 1023.6mb 62f 62f
12:00pm 5ft 17s 18 20 mph 1023.6mb 62f 62f
11:00am 5ft 17s 16 20 mph 1023.6mb 62f 62f
10:00am 5ft 17s 13 16 mph 1023.7mb 61f 62f
8:00am 5.5ft 10s 13 16 mph 1023.8mb 61f 62f
7:00am 5ft 10s 13 16 mph 1024.1mb 62f 62f
6:00am 5.5ft 18s 11 13 mph 1024mb 62f 62f
5:00am 5.5ft 10s 11 13 mph 1024.1mb 62f 62f
4:00am 6ft 10s 11 13 mph 1024.1mb 62f 62f
3:00am 6.5ft 10s 13
mph
1024.1mb 63f 62f
2:00am 6ft 8s 13 16 mph 1024.3mb 63f 62f
1:00am 6ft 17s 13 16 mph 1024.6mb 63f 62f
12:00am 6.5ft 10s 11 16 mph 1024.7mb 63f 62f
Tue 07/28 11:00pm 6ft 10s 9 11 mph 1024.6mb 63f 62f
10:00pm 6ft 10s 11 13 mph 1024.8mb 63f 62f
9:00pm 6ft 10s 7 11 mph 1024.9mb 63f 61f
8:00pm 6ft 11s 7 9 mph 1025.2mb 63f 62f
7:00pm 5.5ft 10s 9
mph
1025.6mb 63f 62f
6:00pm 5ft 10s 11 13 mph 1025.7mb 64f 61f
5:00pm 5ft 9s 9 11 mph 1025.9mb 64f 63f
4:00pm 5.5ft 10s 7 9 mph 1026.3mb 64f 62f